Terminal Aerodrome Forecast
Issued by NWS

Home | Current Version | Previous Version | Text Only | Print | Product List | Glossary On
Versions: 1 2 3 4 5 6 7 8 9 10 11 12 13 14 15
000
FTUS42 KGSP 221100
TAFGMU
TAF
KGMU 221129Z 2212/2312 29003KT P6SM FEW060 SCT120 BKN250
     FM222000 27003KT P6SM SCT050 PROB30 2301/2305 4SM TSRA BKN040CB
     FM230500 31005KT P6SM FEW060
     FM230800 35005KT P6SM BKN060=

USA.gov is the U.S. government's official web portal to all federal, state and local government web resources and services.